首页
METAR-TAF:

METAR-TAF

机场 :

毕尔巴鄂, 西班牙

纬度: 43-18N, 经度: 002-56W, 海拔: 42米

当前天气观测

该预报发布于32分钟前的21:00 UTC
风速3节,风向,在西北北转东北之间变化
温度 16°C
湿度 94%
气压 1011 hPa
能见度10公里或以上
少量云层高于800英尺
散云层高于2000英尺
多云层高于3000英尺

METAR: LEBB 062100Z 36003KT 310V030 9999 FEW008 SCT020 BKN030 16/15 Q1011 NOSIG

时间: 23:32 (21:32 UTC)

预报

该预报发布于4小时和32分钟前的17:00 UTC
预报有效从06日的 18点(UTC)到 07日的 18点(UTC)
风速9节,风向西转西北
能见度10公里或以上
散云层高于1500英尺
多云层高于3000英尺
几率 40% :
短暂存在
从 06日的 18点(UTC)到 07日的 09点(UTC)
能見度: 3000
多云层高于1000英尺
雨, 毛毛雨, 轻雾
短暂存在
从 06日的 18点(UTC)到 06日的 21点(UTC)
能見度: 3000
散云层高于3000英尺, 塔状积云.
雨, 阵雨

TAF: LEBB 061700Z 0618/0718 30009KT 9999 SCT015 BKN030 TX18/0713Z TN14/0705Z PROB40 TEMPO 0618/0709 3000 RADZ BR BKN010 TEMPO 0618/0621 3000 RA SHRA SCT030TCU

超过4000个机场的气象观测和天气预报(METAR&TAF报告)。

可查询的气象台以黄色和红色小点在地图上表示。

将鼠标移到小点上方,可查看气象台名称。

然后点击查看天气观测和预报。

如需切换地图:点击带黑十字的绿色按钮放大地图;点击带横线的绿色按钮缩小地图;或者点击绿色箭头查看邻近地区的地图。


METAR-TAF: